createdAt,value
2022-11-28T00:01:35.473Z,101040.69
2022-11-28T00:04:02.605Z,101030.72
2022-11-28T00:06:29.644Z,101025.09
2022-11-28T00:08:59.275Z,101027.81
2022-11-28T00:11:26.106Z,101028.97
2022-11-28T00:13:52.563Z,101026.00
2022-11-28T00:16:21.661Z,101025.78
2022-11-28T00:18:49.604Z,101016.66
2022-11-28T00:21:16.340Z,101013.94
2022-11-28T00:23:46.257Z,101020.63
2022-11-28T00:26:19.024Z,101020.16
2022-11-28T00:28:45.751Z,101020.97
2022-11-28T00:31:14.012Z,101010.19
2022-11-28T00:33:40.969Z,101010.78
2022-11-28T00:36:08.119Z,101004.31
2022-11-28T00:38:34.453Z,100996.25
2022-11-28T00:41:06.868Z,100994.13
2022-11-28T00:43:33.898Z,100992.00
2022-11-28T00:46:00.596Z,100995.81
2022-11-28T00:48:27.106Z,100994.75
2022-11-28T00:50:53.945Z,100993.97
2022-11-28T00:53:20.301Z,101000.16
2022-11-28T00:55:46.652Z,100992.06
2022-11-28T00:58:13.356Z,100986.69
2022-11-28T01:00:39.708Z,100974.25
2022-11-28T01:03:06.122Z,100977.22
2022-11-28T01:05:32.492Z,100974.25
2022-11-28T01:07:58.968Z,100981.53
2022-11-28T01:10:25.394Z,100973.19
2022-11-28T01:12:51.759Z,100963.47
2022-11-28T01:15:18.115Z,100961.84
2022-11-28T01:17:44.682Z,100957.03
2022-11-28T01:20:11.774Z,100953.25
2022-11-28T01:22:38.162Z,100963.25
2022-11-28T01:25:04.752Z,100960.53
2022-11-28T01:27:31.215Z,100953.84
2022-11-28T01:29:57.615Z,100951.13
2022-11-28T01:32:23.969Z,100951.72
2022-11-28T01:34:50.464Z,100950.66
2022-11-28T01:37:16.795Z,100953.94
2022-11-28T01:39:43.143Z,100957.19
2022-11-28T01:42:16.674Z,100952.38
2022-11-28T01:44:43.167Z,100950.25
2022-11-28T01:47:09.965Z,100948.97
2022-11-28T01:49:37.620Z,100950.59
2022-11-28T01:52:16.010Z,100950.34
2022-11-28T01:54:46.163Z,100956.31
2022-11-28T01:57:18.427Z,100951.50
2022-11-28T01:59:53.733Z,100953.72
2022-11-28T02:02:26.917Z,100947.81
2022-11-28T02:04:53.459Z,100940.31
2022-11-28T02:07:20.287Z,100952.72
2022-11-28T02:09:46.666Z,100950.59
2022-11-28T02:12:28.855Z,100950.38
2022-11-28T02:15:04.147Z,100950.13
2022-11-28T02:17:55.077Z,100935.56
2022-11-28T02:20:43.405Z,100935.06
2022-11-28T02:23:18.768Z,100925.91
2022-11-28T02:26:03.868Z,100924.84
2022-11-28T02:28:42.533Z,100929.19
2022-11-28T02:31:27.618Z,100928.38
2022-11-28T02:33:58.410Z,100925.44
2022-11-28T02:36:33.274Z,100929.19
2022-11-28T02:39:30.116Z,100928.69
2022-11-28T02:42:08.753Z,100933.84
2022-11-28T02:44:44.813Z,100923.31
2022-11-28T02:47:19.574Z,100924.94
2022-11-28T02:50:10.584Z,100931.13
2022-11-28T02:52:41.920Z,100930.34
2022-11-28T02:55:09.046Z,100926.56
2022-11-28T02:57:42.143Z,100927.38
2022-11-28T03:00:43.569Z,100923.03
2022-11-28T03:03:40.534Z,100925.75
2022-11-28T03:06:44.757Z,100929.28
2022-11-28T03:09:34.495Z,100931.97
2022-11-28T03:12:09.964Z,100926.31
2022-11-28T03:14:55.971Z,100924.44
2022-11-28T03:17:50.061Z,100921.97
2022-11-28T03:20:22.807Z,100922.81
2022-11-28T03:23:13.186Z,100924.19
2022-11-28T03:25:55.226Z,100926.06
2022-11-28T03:28:43.916Z,100926.06
2022-11-28T03:31:17.904Z,100923.63
2022-11-28T03:33:58.243Z,100926.56
2022-11-28T03:36:30.337Z,100919.53
2022-11-28T03:39:05.230Z,100928.69
2022-11-28T03:41:39.706Z,100921.41
2022-11-28T03:44:10.869Z,100924.09
2022-11-28T03:46:45.624Z,100919.53
2022-11-28T03:49:20.331Z,100923.03
2022-11-28T03:51:53.696Z,100926.56
2022-11-28T03:54:35.461Z,100931.97
2022-11-28T03:57:12.926Z,100924.94
2022-11-28T03:59:44.719Z,100925.75
2022-11-28T04:02:32.369Z,100937.38
2022-11-28T04:05:17.191Z,100937.09
2022-11-28T04:07:58.399Z,100942.28
2022-11-28T04:10:41.344Z,100937.94
2022-11-28T04:13:18.723Z,100939.00
2022-11-28T04:15:51.692Z,100928.19
2022-11-28T04:18:41.295Z,100934.41
2022-11-28T04:21:20.131Z,100946.59
2022-11-28T04:23:49.483Z,100940.06
2022-11-28T04:26:27.062Z,100936.78
2022-11-28T04:28:56.726Z,100937.38
2022-11-28T04:31:24.638Z,100935.25
2022-11-28T04:33:58.115Z,100937.94
2022-11-28T04:36:26.660Z,100933.59
2022-11-28T04:38:56.490Z,100933.59
2022-11-28T04:41:36.115Z,100929.00
2022-11-28T04:44:22.302Z,100933.59
2022-11-28T04:46:53.564Z,100939.00
2022-11-28T04:49:20.088Z,100936.31
2022-11-28T04:51:56.226Z,100938.50
2022-11-28T04:54:29.418Z,100943.91
2022-11-28T04:57:11.302Z,100943.34
2022-11-28T04:59:39.514Z,100941.69
2022-11-28T05:02:06.445Z,100938.16
2022-11-28T05:04:36.723Z,100942.75
2022-11-28T05:07:05.064Z,100941.69
2022-11-28T05:09:31.527Z,100952.50
2022-11-28T05:11:57.965Z,100944.41
2022-11-28T05:14:24.314Z,100952.72
2022-11-28T05:16:51.146Z,100954.34
2022-11-28T05:19:17.618Z,100956.81
2022-11-28T05:21:44.860Z,100955.19
2022-11-28T05:24:11.179Z,100959.75
2022-11-28T05:26:38.194Z,100965.97
2022-11-28T05:29:05.786Z,100964.34
2022-11-28T05:31:32.358Z,100965.41
2022-11-28T05:33:58.810Z,100965.16
2022-11-28T05:36:25.299Z,100971.38
2022-11-28T05:38:51.652Z,100965.97
2022-11-28T05:41:26.506Z,100963.03
2022-11-28T05:43:52.887Z,100967.63
2022-11-28T05:46:19.498Z,100971.38
2022-11-28T05:48:46.010Z,100963.28
2022-11-28T05:51:12.489Z,100970.06
2022-11-28T05:53:38.877Z,100960.31
2022-11-28T05:56:13.852Z,100969.25
2022-11-28T05:58:40.204Z,100970.88
2022-11-28T06:01:21.226Z,100971.13
2022-11-28T06:03:48.299Z,100968.41
2022-11-28T06:06:18.237Z,100974.66
2022-11-28T06:08:45.848Z,100983.56
2022-11-28T06:11:14.783Z,100975.22
2022-11-28T06:13:42.867Z,100978.72
2022-11-28T06:16:11.173Z,100980.38
2022-11-28T06:18:38.542Z,100976.59
2022-11-28T06:21:06.585Z,100972.03
2022-11-28T06:23:33.431Z,100981.78
2022-11-28T06:26:05.807Z,100984.47
2022-11-28T06:28:32.805Z,100989.88
2022-11-28T06:30:59.274Z,100984.47
2022-11-28T06:33:26.936Z,100976.59
2022-11-28T06:36:04.915Z,100980.72
2022-11-28T06:38:32.092Z,100987.75
2022-11-28T06:41:05.198Z,100986.91
2022-11-28T06:43:38.418Z,100987.75
2022-11-28T06:46:04.981Z,100999.59
2022-11-28T06:48:32.499Z,100998.53
2022-11-28T06:51:04.284Z,100993.94
2022-11-28T06:53:34.054Z,100994.78
2022-11-28T06:56:13.891Z,100993.13
2022-11-28T06:58:43.260Z,101000.97
2022-11-28T07:01:14.398Z,101005.56
2022-11-28T07:03:41.958Z,101013.41
2022-11-28T07:06:11.268Z,101008.84
2022-11-28T07:08:46.390Z,101008.84
2022-11-28T07:11:22.759Z,101010.47
2022-11-28T07:13:49.875Z,101017.50
2022-11-28T07:16:21.858Z,101015.03
2022-11-28T07:18:50.360Z,101015.88
2022-11-28T07:21:17.618Z,101013.41
2022-11-28T07:23:50.869Z,101010.47
2022-11-28T07:26:19.543Z,101013.97
2022-11-28T07:28:46.359Z,101013.97
2022-11-28T07:31:20.939Z,101015.88
2022-11-28T07:33:49.524Z,101017.50
2022-11-28T07:36:21.722Z,101020.22
2022-11-28T07:38:59.030Z,101016.69
2022-11-28T07:41:29.376Z,101024.53
2022-11-28T07:43:58.470Z,101035.34
2022-11-28T07:46:26.090Z,101033.22
2022-11-28T07:48:53.081Z,101028.88
2022-11-28T07:51:23.215Z,101028.63
2022-11-28T07:53:50.227Z,101038.63
2022-11-28T07:56:20.901Z,101039.41
2022-11-28T07:58:57.941Z,101036.50
2022-11-28T08:01:31.845Z,101031.09
2022-11-28T08:03:58.240Z,101036.50
2022-11-28T08:06:28.599Z,101038.94
2022-11-28T08:08:56.219Z,101043.53
2022-11-28T08:11:25.240Z,101038.13
2022-11-28T08:13:53.792Z,101040.56
2022-11-28T08:16:24.524Z,101033.88
2022-11-28T08:18:51.903Z,101037.63
2022-11-28T08:21:26.902Z,101036.56
2022-11-28T08:23:55.280Z,101035.75
2022-11-28T08:26:29.118Z,101039.28
2022-11-28T08:28:57.070Z,101055.47
2022-11-28T08:31:29.517Z,101056.03
2022-11-28T08:33:59.716Z,101046.88
2022-11-28T08:36:29.005Z,101053.09
2022-11-28T08:41:42.805Z,101062.03
2022-11-28T08:44:09.230Z,101058.25
2022-11-28T08:46:36.312Z,101066.34
2022-11-28T08:49:04.553Z,101055.56
2022-11-28T08:51:31.393Z,101068.00
2022-11-28T08:53:59.615Z,101060.47
2022-11-28T08:56:26.557Z,101062.34
2022-11-28T08:58:52.936Z,101060.69
2022-11-28T09:01:22.175Z,101059.41
2022-11-28T09:03:49.282Z,101061.84
2022-11-28T09:06:16.654Z,101062.69
2022-11-28T09:08:43.750Z,101068.88
2022-11-28T09:11:12.783Z,101074.06
2022-11-28T09:13:39.422Z,101065.13
2022-11-28T09:16:06.673Z,101063.81
2022-11-28T09:18:33.319Z,101068.41
2022-11-28T09:21:04.935Z,101071.94
2022-11-28T09:23:32.272Z,101073.78
2022-11-28T09:25:59.645Z,101071.44
2022-11-28T09:28:28.659Z,101069.53
2022-11-28T09:31:02.715Z,101070.38
2022-11-28T09:33:29.518Z,101079.84
2022-11-28T09:35:56.296Z,101075.28
2022-11-28T09:38:22.950Z,101073.66
2022-11-28T09:40:49.764Z,101071.75
2022-11-28T09:43:30.932Z,101075.81
2022-11-28T09:46:00.435Z,101081.22
2022-11-28T09:48:43.558Z,101076.41
2022-11-28T09:51:25.274Z,101083.69
2022-11-28T09:54:17.379Z,101079.44
2022-11-28T09:56:52.515Z,101080.25
2022-11-28T09:59:28.006Z,101085.41
2022-11-28T10:02:18.543Z,101086.78
2022-11-28T10:05:02.640Z,101087.34
2022-11-28T10:07:43.329Z,101080.31
2022-11-28T10:10:42.495Z,101078.69
2022-11-28T10:13:21.353Z,101090.06
2022-11-28T10:15:57.638Z,101092.75
2022-11-28T10:18:52.197Z,101094.41
2022-11-28T10:21:23.110Z,101090.63
2022-11-28T10:23:52.223Z,101096.59
2022-11-28T10:26:36.102Z,101092.03
2022-11-28T10:29:20.123Z,101085.56
2022-11-28T10:31:48.141Z,101088.00
2022-11-28T10:34:41.188Z,101087.78
2022-11-28T10:37:31.128Z,101091.06
2022-11-28T10:40:22.659Z,101086.44
2022-11-28T10:42:55.595Z,101085.38
2022-11-28T10:45:30.106Z,101087.84
2022-11-28T10:48:38.611Z,101089.50
2022-11-28T10:51:24.806Z,101087.34
2022-11-28T10:54:38.764Z,101096.84
2022-11-28T10:57:15.522Z,101096.84
2022-11-28T10:59:58.819Z,101100.13
2022-11-28T11:02:41.095Z,101094.47
2022-11-28T11:05:13.499Z,101087.19
2022-11-28T11:07:46.204Z,101092.56
2022-11-28T11:10:19.599Z,101090.44
2022-11-28T11:12:46.961Z,101081.53
2022-11-28T11:15:29.805Z,101083.75
2022-11-28T11:17:57.339Z,101086.19
2022-11-28T11:20:37.683Z,101094.28
2022-11-28T11:23:23.061Z,101093.22
2022-11-28T11:25:55.573Z,101086.75
2022-11-28T11:28:39.498Z,101094.38
2022-11-28T11:31:24.674Z,101102.47
2022-11-28T11:34:01.058Z,101098.69
2022-11-28T11:36:34.528Z,101100.34
2022-11-28T11:39:18.848Z,101110.09
2022-11-28T11:41:51.009Z,101099.28
2022-11-28T11:44:29.100Z,101092.81
2022-11-28T11:47:02.828Z,101102.56
2022-11-28T11:49:35.585Z,101097.47
2022-11-28T11:52:06.542Z,101098.31
2022-11-28T11:54:33.439Z,101110.75
2022-11-28T11:57:24.922Z,101105.34
2022-11-28T11:59:53.678Z,101110.25
2022-11-28T12:02:25.914Z,101103.53
2022-11-28T12:05:00.299Z,101101.66
2022-11-28T12:07:33.609Z,101103.03
2022-11-28T12:12:46.809Z,101103.34
2022-11-28T12:15:59.301Z,101099.59
2022-11-28T12:18:49.679Z,101102.84
2022-11-28T12:21:54.724Z,101107.75
2022-11-28T12:24:30.331Z,101108.56
2022-11-28T12:27:29.207Z,101102.91
2022-11-28T12:30:14.282Z,101104.56
2022-11-28T12:32:59.397Z,101105.13
2022-11-28T12:35:59.019Z,101106.75
2022-11-28T12:38:58.798Z,101105.44
2022-11-28T12:41:47.068Z,101112.47
2022-11-28T12:44:29.952Z,101109.53
2022-11-28T12:47:08.970Z,101109.53
2022-11-28T12:49:57.017Z,101107.41
2022-11-28T12:52:40.874Z,101101.16
2022-11-28T12:55:41.836Z,101114.44
2022-11-28T12:58:11.097Z,101112.31
2022-11-28T13:00:50.871Z,101106.91
2022-11-28T13:03:44.727Z,101104.75
2022-11-28T13:06:28.035Z,101106.38
2022-11-28T13:09:24.378Z,101110.72
2022-11-28T13:12:14.487Z,101106.13
2022-11-28T13:15:00.447Z,101109.66
2022-11-28T13:17:42.013Z,101108.59
2022-11-28T13:20:21.375Z,101116.44
2022-11-28T13:22:58.706Z,101114.56
2022-11-28T13:25:36.220Z,101114.56
2022-11-28T13:28:21.588Z,101116.44
2022-11-28T13:30:53.012Z,101116.19
2022-11-28T13:33:49.491Z,101123.25
2022-11-28T13:39:37.628Z,101120.84
2022-11-28T13:42:59.982Z,101111.91
2022-11-28T13:45:31.761Z,101120.84
2022-11-28T13:48:00.241Z,101128.97
2022-11-28T13:50:35.371Z,101130.59
2022-11-28T13:53:08.082Z,101136.00
2022-11-28T13:55:46.907Z,101146.00
2022-11-28T13:58:23.324Z,101138.16
2022-11-28T14:00:59.720Z,101138.16
2022-11-28T14:03:26.330Z,101136.25
2022-11-28T14:06:00.419Z,101133.53
2022-11-28T14:08:32.793Z,101146.00
2022-11-28T14:11:11.817Z,101151.41
2022-11-28T14:13:44.815Z,101149.78
2022-11-28T14:16:39.607Z,101156.81
2022-11-28T14:19:23.434Z,101156.81
2022-11-28T14:22:08.175Z,101166.00
2022-11-28T14:24:53.714Z,101166.56
2022-11-28T14:27:24.715Z,101165.50
2022-11-28T14:29:54.379Z,101166.56
2022-11-28T14:32:41.278Z,101160.59
2022-11-28T14:35:59.309Z,101176.31
2022-11-28T14:38:31.452Z,101171.97
2022-11-28T14:41:12.787Z,101169.28
2022-11-28T14:43:47.489Z,101170.91
2022-11-28T14:46:33.379Z,101177.16
2022-11-28T14:49:00.076Z,101175.53
2022-11-28T14:51:48.460Z,101171.75
2022-11-28T14:54:21.928Z,101171.97
2022-11-28T14:56:52.104Z,101181.72
2022-11-28T14:59:27.511Z,101176.31
2022-11-28T15:02:20.534Z,101176.31
2022-11-28T15:05:32.190Z,101182.56
2022-11-28T15:07:58.458Z,101173.63
2022-11-28T15:10:40.777Z,101174.69
2022-11-28T15:13:35.582Z,101177.41
2022-11-28T15:16:09.859Z,101183.88
2022-11-28T15:18:38.157Z,101182.22
2022-11-28T15:21:12.272Z,101187.66
2022-11-28T15:23:38.599Z,101184.94
2022-11-28T15:26:06.814Z,101198.47
2022-11-28T15:28:35.561Z,101198.47
2022-11-28T15:31:05.618Z,101200.59
2022-11-28T15:33:32.778Z,101196.03
2022-11-28T15:36:11.913Z,101197.91
2022-11-28T15:38:41.896Z,101199.00
2022-11-28T15:41:08.589Z,101197.09
2022-11-28T15:43:38.188Z,101207.13
2022-11-28T15:46:05.889Z,101215.22
2022-11-28T15:48:53.691Z,101209.81
2022-11-28T15:51:40.357Z,101211.97
2022-11-28T15:54:36.324Z,101223.59
2022-11-28T15:57:03.525Z,101218.44
2022-11-28T15:59:30.400Z,101227.63
2022-11-28T16:02:01.895Z,101227.63
2022-11-28T16:04:30.312Z,101224.06
2022-11-28T16:06:59.331Z,101226.78
2022-11-28T16:09:35.614Z,101230.31
2022-11-28T16:12:04.175Z,101218.94
2022-11-28T16:14:34.159Z,101230.31
2022-11-28T16:17:10.421Z,101225.41
2022-11-28T16:19:38.065Z,101230.81
2022-11-28T16:22:07.867Z,101233.19
2022-11-28T16:24:46.065Z,101230.97
2022-11-28T16:27:36.532Z,101245.56
2022-11-28T16:30:23.350Z,101251.81
2022-11-28T16:32:51.255Z,101253.94
2022-11-28T16:35:30.170Z,101252.31
2022-11-28T16:38:14.199Z,101247.69
2022-11-28T16:40:41.355Z,101252.31
2022-11-28T16:43:19.868Z,101259.34
2022-11-28T16:45:46.286Z,101254.75
2022-11-28T16:48:19.059Z,101264.50
2022-11-28T16:51:04.276Z,101256.38
2022-11-28T16:53:45.892Z,101261.78
2022-11-28T16:56:30.518Z,101265.34
2022-11-28T16:59:12.222Z,101266.97
2022-11-28T17:01:39.299Z,101267.22
2022-11-28T17:04:05.916Z,101265.34
2022-11-28T17:06:38.849Z,101266.41
2022-11-28T17:09:11.850Z,101271.81
2022-11-28T17:11:42.822Z,101284.28
2022-11-28T17:14:13.648Z,101276.16
2022-11-28T17:16:41.656Z,101278.88
2022-11-28T17:19:08.451Z,101291.31
2022-11-28T17:21:40.552Z,101290.25
2022-11-28T17:24:16.100Z,101288.84
2022-11-28T17:26:42.524Z,101298.88
2022-11-28T17:29:11.331Z,101292.63
2022-11-28T17:31:41.402Z,101293.94
2022-11-28T17:34:23.075Z,101287.38
2022-11-28T17:36:50.552Z,101292.44
2022-11-28T17:39:18.341Z,101293.78
2022-11-28T17:41:45.307Z,101296.41
2022-11-28T17:44:22.442Z,101296.63
2022-11-28T17:46:50.662Z,101301.94
2022-11-28T17:49:17.430Z,101297.03
2022-11-28T17:51:44.252Z,101299.66
2022-11-28T17:54:13.995Z,101308.00
2022-11-28T17:56:40.323Z,101314.94
2022-11-28T17:59:06.679Z,101310.28
2022-11-28T18:01:33.077Z,101314.53
2022-11-28T18:03:59.478Z,101316.66
2022-11-28T18:06:25.988Z,101322.53
2022-11-28T18:08:53.171Z,101317.84
2022-11-28T18:11:20.181Z,101329.16
2022-11-28T18:13:47.004Z,101330.19
2022-11-28T18:16:16.087Z,101328.25
2022-11-28T18:18:42.532Z,101325.75
2022-11-28T18:21:10.074Z,101325.75
2022-11-28T18:23:45.769Z,101330.34
2022-11-28T18:26:14.418Z,101334.94
2022-11-28T18:28:41.687Z,101332.22
2022-11-28T18:31:10.472Z,101334.34
2022-11-28T18:33:38.463Z,101330.25
2022-11-28T18:36:09.971Z,101331.56
2022-11-28T18:38:41.816Z,101338.00
2022-11-28T18:41:12.158Z,101324.41
2022-11-28T18:43:44.099Z,101335.22
2022-11-28T18:46:17.070Z,101335.69
2022-11-28T18:48:45.651Z,101345.69
2022-11-28T18:51:20.855Z,101337.81
2022-11-28T18:53:48.555Z,101346.97
2022-11-28T18:56:15.887Z,101347.69
2022-11-28T18:58:45.595Z,101349.59
2022-11-28T19:01:15.089Z,101357.69
2022-11-28T19:03:42.541Z,101349.25
2022-11-28T19:06:11.124Z,101365.69
2022-11-28T19:08:39.795Z,101363.00
2022-11-28T19:11:11.357Z,101360.50
2022-11-28T19:13:38.874Z,101352.66
2022-11-28T19:16:13.588Z,101361.25
2022-11-28T19:18:41.392Z,101365.81
2022-11-28T19:21:10.022Z,101362.31
2022-11-28T19:23:36.561Z,101360.19
2022-11-28T19:26:05.621Z,101368.88
2022-11-28T19:28:32.192Z,101369.44
2022-11-28T19:31:15.241Z,101374.59
2022-11-28T19:33:42.848Z,101378.13
2022-11-28T19:36:11.512Z,101377.66
2022-11-28T19:38:38.713Z,101376.59
2022-11-28T19:41:13.260Z,101377.19
2022-11-28T19:43:41.735Z,101377.78
2022-11-28T19:46:09.352Z,101375.88
2022-11-28T19:48:37.815Z,101378.31
2022-11-28T19:51:04.788Z,101375.63
2022-11-28T19:53:34.937Z,101388.06
2022-11-28T19:56:06.223Z,101388.44
2022-11-28T19:58:35.176Z,101387.59
2022-11-28T20:01:05.536Z,101376.31
2022-11-28T20:03:33.933Z,101387.94
2022-11-28T20:06:00.538Z,101392.03
2022-11-28T20:08:27.055Z,101399.91
2022-11-28T20:10:53.415Z,101402.38
2022-11-28T20:13:19.783Z,101408.13
2022-11-28T20:15:46.113Z,101402.47
2022-11-28T20:18:12.534Z,101402.25
2022-11-28T20:20:38.879Z,101399.28
2022-11-28T20:23:05.231Z,101400.72
2022-11-28T20:25:33.144Z,101388.84
2022-11-28T20:27:59.482Z,101398.34
2022-11-28T20:30:25.815Z,101400.81
2022-11-28T20:32:53.395Z,101399.75
2022-11-28T20:35:19.714Z,101411.38
2022-11-28T20:37:46.068Z,101414.06
2022-11-28T20:40:13.100Z,101422.44
2022-11-28T20:42:40.122Z,101419.97
2022-11-28T20:45:07.214Z,101421.59
2022-11-28T20:47:34.605Z,101427.00
2022-11-28T20:50:02.019Z,101420.78
2022-11-28T20:52:28.393Z,101413.50
2022-11-28T20:54:54.860Z,101429.47
2022-11-28T20:57:22.392Z,101424.88
2022-11-28T20:59:48.942Z,101428.66
2022-11-28T21:02:15.641Z,101427.00
2022-11-28T21:04:42.063Z,101430.19
2022-11-28T21:07:08.628Z,101437.22
2022-11-28T21:09:34.963Z,101439.72
2022-11-28T21:12:01.307Z,101437.00
2022-11-28T21:14:28.679Z,101442.06
2022-11-28T21:16:55.826Z,101438.28
2022-11-28T21:19:22.431Z,101442.06
2022-11-28T21:21:48.787Z,101440.19
2022-11-28T21:24:15.285Z,101447.44
2022-11-28T21:26:46.686Z,101440.41
2022-11-28T21:29:16.320Z,101446.41
2022-11-28T21:31:44.376Z,101447.22
2022-11-28T21:34:16.424Z,101449.09
2022-11-28T21:36:43.490Z,101461.56
2022-11-28T21:39:13.386Z,101462.38
2022-11-28T21:41:40.010Z,101461.56
2022-11-28T21:44:06.323Z,101464.50
2022-11-28T21:46:32.699Z,101461.56
2022-11-28T21:48:59.086Z,101456.16
2022-11-28T21:51:25.983Z,101456.16
2022-11-28T21:53:52.362Z,101468.59
2022-11-28T21:56:20.244Z,101455.34
2022-11-28T21:58:46.591Z,101458.25
2022-11-28T22:01:13.882Z,101459.91
2022-11-28T22:03:41.688Z,101468.00
2022-11-28T22:06:19.950Z,101468.00
2022-11-28T22:08:46.534Z,101459.44
2022-11-28T22:11:13.359Z,101465.66
2022-11-28T22:13:42.243Z,101472.94
2022-11-28T22:16:15.439Z,101478.34
2022-11-28T22:18:42.418Z,101472.34
2022-11-28T22:21:49.511Z,101480.25
2022-11-28T22:23:56.181Z,101478.34
2022-11-28T22:26:22.585Z,101484.00
2022-11-28T22:28:53.515Z,101477.75
2022-11-28T22:31:20.853Z,101483.16
2022-11-28T22:33:49.543Z,101482.09
2022-11-28T22:36:17.809Z,101485.66
2022-11-28T22:38:46.304Z,101482.69
2022-11-28T22:41:15.561Z,101485.38
2022-11-28T22:43:42.154Z,101488.09
2022-11-28T22:46:09.370Z,101485.66
2022-11-28T22:48:36.947Z,101494.56
2022-11-28T22:51:17.874Z,101498.91
2022-11-28T22:53:44.462Z,101498.91
2022-11-28T22:56:13.334Z,101498.09
2022-11-28T22:58:42.817Z,101502.66
2022-11-28T23:01:21.315Z,101503.25
2022-11-28T23:03:47.926Z,101502.19
2022-11-28T23:06:20.042Z,101503.84
2022-11-28T23:08:47.290Z,101505.47
2022-11-28T23:11:19.661Z,101501.13
2022-11-28T23:13:47.959Z,101506.53
2022-11-28T23:16:21.399Z,101505.72
2022-11-28T23:18:50.011Z,101512.78
2022-11-28T23:21:17.969Z,101506.53
2022-11-28T23:23:46.003Z,101505.47
2022-11-28T23:26:18.351Z,101510.88
2022-11-28T23:28:45.195Z,101504.91
2022-11-28T23:31:16.520Z,101509.25
2022-11-28T23:33:43.675Z,101504.91
2022-11-28T23:36:30.038Z,101507.59
2022-11-28T23:38:59.307Z,101507.59
2022-11-28T23:41:26.823Z,101510.31
2022-11-28T23:43:53.322Z,101509.25
2022-11-28T23:46:20.918Z,101513.59
2022-11-28T23:48:48.004Z,101516.28
2022-11-28T23:51:15.982Z,101510.06
2022-11-28T23:53:43.092Z,101517.59
2022-11-28T23:56:12.131Z,101514.06
2022-11-28T23:58:38.898Z,101518.41
